Airfield :
LOGIN :

Register | Disclaimer

   EN    FR    IT 

 










Legend :    VFR   Marginal VFR   IFR   Intensive IFR   Very Intensive IFR
Visi :
Ceiling :
>= 8 km
>= 3000ft
5 to 8 km
1000 to 3000 ft
1500m to 5 km
500 to 1000 ft
800 to 1500m
200 to 500 ft
< 800m
< 200 ft
Symbols :   Thunderstorms  Fog  Heavy snow  Heavy precipitations  Wind > 20 kt
SIGMETs :     Misc.  Thunderstorms  Icing  Turbulence  Mountain Waves  Volcanic Ashes







- Airport Elevation : 1742 ft
- IATA code : SOF


LBSF - Sofia Int.

CURRENT METAR :
  • 241600Z VRB02KT 7000 -SHRA FEW015 FEW030TCU SCT065 18/17 Q1019 NOSIG

EXPIRED METARs :
  • 241530Z 32003KT 260V360 8000 -SHRA FEW025 FEW030TCU SCT062 18/16 Q1018 TEMPO 5000 SHRA
  • 241500Z 18005KT 8000 -SHRA FEW025 FEW030TCU SCT062 18/16 Q1019 RETSRA NOSIG
  • 241430Z 16012KT 140V200 4000 TSRA SCT018 FEW030CB BKN034 19/16 Q1019 TEMPO 1500 +TSRA
  • 241400Z 21005KT 170V250 8000 -TSRA FEW022 FEW030CB SCT043 18/15 Q1018 RETSRA TEMPO 5000 TSRA
  • 241330Z 00000KT 9999 -TSRA FEW022 FEW030CB SCT050 17/14 Q1018 TEMPO 5000 TSRA

TAF TAF LBSF
Valid from the 24 at 12:00 until the 25 at 12:00 UTC


241100Z 2412/2512 09010KT 9999 SCT030 BKN040
TEMPO 2412/2419 3000 TSRA SCT012 SCT030CB BKN033
BECMG 2418/2420 VRB04KT
TEMPO 2501/2505 2000 BR BKN009
No reported NOTAMs for that airfield.
1 SIGMET reported for the Sofia FIR (LBSR) :
 
Embedded thunderstorms
LBSR SIGMET 05 VALID 241500/241700 LBSR
LBSR SOFIA FIR EMBD TS OBS AT 1500Z WI N4120 E02514 - N4301 E02503 - N4301 E02340 - N4128 E02352 - N4133 E02432 TOP FL360/390 MOV W 05KT NC=



MET'MAP, your aeronautical weather chart ! - Copyright ORBIFLY December 2007 - Disclaimer

ORBIFLY MET'MAP TEAM :

Programming & Development : Alexandra Zaïnal
Concept & Development : Baudouin d'Aumeries
Co-Development & Prog : Marc-Olivier Méhu
Technical & hardware support : Manuel Goepfert

Contact : metmap@orbifly.com




SOURCES & CREDITS :

   NOAA